Worthington, MN

12:16 PM CST on December 11, 2019 (GMT -0600)
Worthington Municipal

Weather History for KOTG - October, 2019

Change the Weather History Date:

Saturday, October 12, 2019

  Actual Average Record
Temperature  
Mean Temperature 30 °F -  
Max Temperature 34 °F 58 °F 81 °F (1976)
Min Temperature 28 °F 38 °F 19 °F (2012)
Degree Days  
Heating Degree Days 34    
Moisture  
Dew Point 29 °F    
Average Humidity 90    
Maximum Humidity 96    
Minimum Humidity 78    
Precipitation  
Precipitation 0.01 in - - ()
Sea Level Pressure  
Sea Level Pressure 29.77 in    
Wind  
Wind Speed 18 mph (West)    
Max Wind Speed 24 mph    
Max Gust Speed 34 mph    
Visibility 4 miles    
Events Snow    
Averages and records for this station are not official NWS values.
T = Trace of Precipitation, MM = Missing Value Source: NWS Daily Summary

Daily Weather History Graph

Daily Weather History Graph

Search for Another Location

Airport or City:

Astronomy

Oct. 12, 2019 Rise Set
Actual Time 7:32 AM CDT 6:44 PM CDT
Civil Twilight 7:03 AM CDT 7:13 PM CDT
Nautical Twilight 6:30 AM CDT 7:46 PM CDT
Astronomical Twilight 5:57 AM CDT 8:19 PM CDT
Moon 6:44 PM CDT (10/12) 6:06 AM CDT (10/12)
Length of Visible Light 12h 09m
Length of Day
11h 11m
Waxing Gibbous, 99% of the Moon is Illuminated
Oct 12
Waxing Gibbous
Oct 13
Full
Oct 21
Last Quarter
Oct 27
New
Nov 4
First Quarter

Hourly Weather History & Observations

Time (CDT) Temp. Windchill Dew Point Humidity Pressure Visibility Wind Dir Wind Speed Gust Speed Precip Events Conditions
12:56 AM 28.9 °F 17.3 °F 23.0 °F 78% 29.91 in 10.0 mi WSW 16.1 mph 23.0 mph N/A   Clear
1:56 AM 28.9 °F 18.2 °F 23.0 °F 78% 29.89 in 10.0 mi WSW 13.8 mph 23.0 mph N/A   Clear
2:56 AM 28.0 °F 16.1 °F 23.0 °F 81% 29.87 in 10.0 mi WSW 16.1 mph 25.3 mph N/A   Clear
3:56 AM 28.0 °F 16.1 °F 24.1 °F 85% 29.86 in 10.0 mi WSW 16.1 mph - N/A   Clear
4:56 AM 28.0 °F 17.0 °F 24.1 °F 85% 29.84 in 10.0 mi WSW 13.8 mph 21.9 mph N/A   Clear
5:56 AM 28.9 °F 17.7 °F 25.0 °F 85% 29.81 in 10.0 mi WSW 15.0 mph 25.3 mph N/A   Clear
6:56 AM 30.0 °F 17.5 °F 25.0 °F 82% 29.78 in 10.0 mi WSW 19.6 mph 29.9 mph N/A   Clear
7:56 AM 30.0 °F 17.5 °F 25.0 °F 82% 29.78 in 10.0 mi WSW 19.6 mph 29.9 mph N/A   Overcast
8:56 AM 30.9 °F 19.4 °F 26.1 °F 82% 29.77 in 3.0 mi WSW 17.3 mph 26.5 mph 0.00 in Snow Light Snow
9:17 AM 30.2 °F 18.9 °F 26.6 °F 86% 29.72 in 1.8 mi WSW 16.1 mph 26.5 mph 0.00 in Snow Light Snow
9:31 AM 30.2 °F 18.9 °F 28.4 °F 93% 29.71 in 1.8 mi WSW 16.1 mph 26.5 mph 0.00 in Snow Light Snow
9:39 AM 30.2 °F 18.9 °F 28.4 °F 93% 29.70 in 1.2 mi WSW 16.1 mph 24.2 mph 0.00 in Snow Light Snow
9:56 AM 30.9 °F 19.1 °F 28.9 °F 92% 29.75 in 2.5 mi West 18.4 mph 28.8 mph 0.00 in Snow Light Snow
10:06 AM 30.2 °F 17.4 °F 28.4 °F 93% 29.70 in 3.0 mi WSW 20.7 mph 25.3 mph 0.00 in Snow Light Snow
10:24 AM 32.0 °F 20.8 °F 28.4 °F 87% 29.70 in 6.0 mi West 17.3 mph 28.8 mph 0.00 in Snow Light Snow
10:29 AM 32.0 °F 19.5 °F 28.4 °F 87% 29.69 in 5.0 mi West 21.9 mph 28.8 mph 0.00 in Snow Light Snow
10:40 AM 32.0 °F 19.8 °F 28.4 °F 87% 29.70 in 5.0 mi West 20.7 mph 34.5 mph 0.00 in Snow Light Snow
10:56 AM 32.0 °F 20.5 °F 28.0 °F 85% 29.76 in 5.0 mi West 18.4 mph 28.8 mph 0.00 in Snow Light Snow
11:56 AM 33.1 °F 20.3 °F 28.0 °F 82% 29.77 in 6.0 mi West 24.2 mph 29.9 mph 0.00 in Snow Light Snow
12:43 PM 33.8 °F 22.5 °F 30.2 °F 87% 29.71 in 2.5 mi West 19.6 mph 25.3 mph 0.00 in Snow Light Snow
12:53 PM 33.8 °F 21.9 °F 30.2 °F 87% 29.71 in 1.8 mi West 21.9 mph 33.4 mph 0.00 in Snow Light Snow
12:54 PM 33.1 °F 20.6 °F 30.0 °F 89% 29.77 in 1.8 mi West 23.0 mph 33.4 mph 0.00 in Snow Light Snow
1:34 PM 32.0 °F 18.9 °F 30.2 °F 93% 29.71 in 1.0 mi West 24.2 mph 31.1 mph 0.01 in Snow Light Snow
1:52 PM 32.0 °F 19.8 °F 30.2 °F 93% 29.71 in 1.2 mi West 20.7 mph 31.1 mph 0.01 in Snow Light Snow
1:56 PM 32.0 °F 20.1 °F 30.0 °F 92% 29.78 in 1.2 mi West 19.6 mph 31.1 mph 0.01 in Snow Light Snow
2:42 PM 33.8 °F 22.5 °F 30.2 °F 87% 29.71 in 2.0 mi West 19.6 mph 29.9 mph 0.00 in Snow Light Snow
2:56 PM 33.1 °F 20.6 °F 30.9 °F 92% 29.78 in 3.0 mi West 23.0 mph 31.1 mph 0.00 in Snow Light Snow
3:56 PM 33.1 °F 20.6 °F 30.0 °F 89% 29.79 in 2.5 mi West 23.0 mph 29.9 mph 0.00 in Snow Light Snow
4:05 PM 33.8 °F 22.2 °F 30.2 °F 87% 29.73 in 3.0 mi West 20.7 mph 28.8 mph 0.00 in Snow Light Snow
4:17 PM 33.8 °F 22.2 °F 30.2 °F 87% 29.73 in 2.0 mi West 20.7 mph 32.2 mph 0.00 in Snow Light Snow
4:35 PM 32.0 °F 19.8 °F 30.2 °F 93% 29.73 in 1.5 mi West 20.7 mph 27.6 mph 0.00 in Snow Light Snow
4:39 PM 32.0 °F 20.1 °F 30.2 °F 93% 29.73 in 1.5 mi West 19.6 mph 26.5 mph 0.00 in Snow Light Snow
4:46 PM 32.0 °F 20.5 °F 30.2 °F 93% 29.73 in 1.8 mi West 18.4 mph 27.6 mph 0.00 in Snow Light Snow
4:56 PM 32.0 °F 19.8 °F 30.9 °F 96% 29.80 in 1.8 mi West 20.7 mph 25.3 mph 0.00 in Snow Light Snow
5:13 PM 32.0 °F 20.1 °F 30.2 °F 93% 29.74 in 2.0 mi West 19.6 mph 26.5 mph 0.00 in Snow Light Snow
5:24 PM 32.0 °F 20.5 °F 30.2 °F 93% 29.74 in 3.0 mi West 18.4 mph 28.8 mph 0.00 in Snow Light Snow
5:35 PM 32.0 °F 19.8 °F 30.2 °F 93% 29.74 in 2.5 mi West 20.7 mph 26.5 mph 0.00 in Snow Light Snow
5:42 PM 32.0 °F 20.5 °F 30.2 °F 93% 29.74 in 2.5 mi West 18.4 mph 26.5 mph 0.00 in Snow Light Snow
5:45 PM 32.0 °F 19.8 °F 30.2 °F 93% 29.75 in 3.0 mi West 20.7 mph 27.6 mph 0.00 in Snow Light Snow
5:56 PM 32.0 °F 20.5 °F 30.9 °F 96% 29.81 in 3.0 mi West 18.4 mph 29.9 mph 0.00 in Snow Light Snow
6:03 PM 32.0 °F 20.5 °F 30.2 °F 93% 29.75 in 2.5 mi West 18.4 mph 28.8 mph 0.00 in Snow Light Snow
6:20 PM 32.0 °F 20.1 °F 30.2 °F 93% 29.75 in 1.8 mi West 19.6 mph 25.3 mph 0.00 in Snow Light Snow
6:47 PM 32.0 °F 21.6 °F 30.2 °F 93% 29.75 in 2.5 mi West 15.0 mph 24.2 mph 0.00 in Snow Light Snow
6:56 PM 32.0 °F 20.5 °F 30.9 °F 96% 29.82 in 3.0 mi West 18.4 mph 25.3 mph 0.00 in Snow Light Snow
7:29 PM 32.0 °F 21.2 °F 30.2 °F 93% 29.76 in 2.5 mi West 16.1 mph 24.2 mph 0.00 in Snow Light Snow
7:44 PM 32.0 °F 20.8 °F 30.2 °F 93% 29.77 in 3.0 mi West 17.3 mph 23.0 mph 0.00 in Snow Light Snow
7:56 PM 32.0 °F 20.8 °F 30.0 °F 92% 29.84 in 3.0 mi West 17.3 mph 23.0 mph 0.00 in Snow Light Snow
8:08 PM 32.0 °F 20.8 °F 30.2 °F 93% 29.78 in 2.5 mi West 17.3 mph 23.0 mph 0.00 in Snow Light Snow
8:29 PM 32.0 °F 20.5 °F 30.2 °F 93% 29.77 in 3.0 mi West 18.4 mph 25.3 mph 0.00 in Snow Light Snow
8:56 PM 32.0 °F 20.8 °F 30.0 °F 92% 29.82 in 6.0 mi West 17.3 mph 27.6 mph 0.00 in Snow Light Snow
9:05 PM 32.0 °F 20.5 °F 30.2 °F 93% 29.76 in 7.0 mi West 18.4 mph 25.3 mph 0.00 in Snow Light Snow
9:56 PM 32.0 °F 20.5 °F 30.0 °F 92% 29.82 in 8.0 mi West 18.4 mph 24.2 mph 0.00 in Snow Light Snow
10:08 PM 32.0 °F 21.2 °F 30.2 °F 93% 29.76 in 9.0 mi West 16.1 mph 21.9 mph 0.00 in Snow Light Snow
10:36 PM 32.0 °F 21.2 °F 30.2 °F 93% 29.76 in 10.0 mi West 16.1 mph 24.2 mph 0.00 in   Overcast
10:56 PM 32.0 °F 21.6 °F 30.0 °F 92% 29.82 in 10.0 mi West 15.0 mph - 0.00 in   Overcast
11:56 PM 32.0 °F 20.8 °F 30.0 °F 92% 29.82 in 10.0 mi West 17.3 mph 23.0 mph 0.00 in   Overcast